sensor_id;sensor_type;location;lat;lon;timestamp;pressure;altitude;pressure_sealevel;temperature
64175;BMP280;50469;50.438;-119.202;2022-09-23T00:01:44;96517.16;;;25.37
64175;BMP280;50469;50.438;-119.202;2022-09-23T00:04:12;96499.16;;;24.47
64175;BMP280;50469;50.438;-119.202;2022-09-23T00:06:43;96496.25;;;24.15
64175;BMP280;50469;50.438;-119.202;2022-09-23T00:09:11;96504.78;;;24.55
64175;BMP280;50469;50.438;-119.202;2022-09-23T00:11:39;96507.09;;;24.02
64175;BMP280;50469;50.438;-119.202;2022-09-23T00:14:10;96516.22;;;23.80
64175;BMP280;50469;50.438;-119.202;2022-09-23T00:16:41;96506.56;;;23.43
64175;BMP280;50469;50.438;-119.202;2022-09-23T00:19:12;96502.06;;;23.10
64175;BMP280;50469;50.438;-119.202;2022-09-23T00:21:40;96509.00;;;22.53
64175;BMP280;50469;50.438;-119.202;2022-09-23T00:24:12;96508.34;;;21.96
64175;BMP280;50469;50.438;-119.202;2022-09-23T00:26:40;96513.97;;;22.43
64175;BMP280;50469;50.438;-119.202;2022-09-23T00:29:08;96504.44;;;22.78
64175;BMP280;50469;50.438;-119.202;2022-09-23T00:31:36;96501.00;;;23.19
64175;BMP280;50469;50.438;-119.202;2022-09-23T00:34:08;96512.78;;;22.16
64175;BMP280;50469;50.438;-119.202;2022-09-23T00:36:37;96510.28;;;22.29
64175;BMP280;50469;50.438;-119.202;2022-09-23T00:39:05;96505.81;;;22.15
64175;BMP280;50469;50.438;-119.202;2022-09-23T00:41:38;96506.34;;;22.02
64175;BMP280;50469;50.438;-119.202;2022-09-23T00:47:21;96511.03;;;22.30
64175;BMP280;50469;50.438;-119.202;2022-09-23T00:50:40;96508.59;;;22.09
64175;BMP280;50469;50.438;-119.202;2022-09-23T00:52:50;96520.47;;;22.12
64175;BMP280;50469;50.438;-119.202;2022-09-23T00:55:29;96514.53;;;22.13
64175;BMP280;50469;50.438;-119.202;2022-09-23T00:57:58;96520.22;;;22.15
64175;BMP280;50469;50.438;-119.202;2022-09-23T01:00:30;96521.69;;;21.55
64175;BMP280;50469;50.438;-119.202;2022-09-23T01:02:59;96528.84;;;21.35
64175;BMP280;50469;50.438;-119.202;2022-09-23T01:05:27;96523.19;;;20.85
64175;BMP280;50469;50.438;-119.202;2022-09-23T01:07:58;96520.59;;;20.53
64175;BMP280;50469;50.438;-119.202;2022-09-23T01:10:38;96522.31;;;20.56
64175;BMP280;50469;50.438;-119.202;2022-09-23T01:13:22;96521.00;;;20.46
64175;BMP280;50469;50.438;-119.202;2022-09-23T01:16:44;96525.38;;;20.32
64175;BMP280;50469;50.438;-119.202;2022-09-23T01:18:55;96524.81;;;19.91
64175;BMP280;50469;50.438;-119.202;2022-09-23T01:24:32;96543.91;;;19.50
64175;BMP280;50469;50.438;-119.202;2022-09-23T01:27:37;96550.44;;;19.38
64175;BMP280;50469;50.438;-119.202;2022-09-23T01:30:25;96551.03;;;19.07
64175;BMP280;50469;50.438;-119.202;2022-09-23T01:35:41;96548.34;;;18.71
64175;BMP280;50469;50.438;-119.202;2022-09-23T01:38:22;96565.06;;;18.20
64175;BMP280;50469;50.438;-119.202;2022-09-23T01:40:59;96570.84;;;18.13
64175;BMP280;50469;50.438;-119.202;2022-09-23T01:43:41;96554.31;;;17.96
64175;BMP280;50469;50.438;-119.202;2022-09-23T01:46:21;96563.59;;;17.80
64175;BMP280;50469;50.438;-119.202;2022-09-23T01:48:56;96560.84;;;17.50
64175;BMP280;50469;50.438;-119.202;2022-09-23T01:51:34;96568.22;;;17.02
64175;BMP280;50469;50.438;-119.202;2022-09-23T01:54:31;96571.13;;;16.89
64175;BMP280;50469;50.438;-119.202;2022-09-23T01:57:01;96564.19;;;16.64
64175;BMP280;50469;50.438;-119.202;2022-09-23T01:59:40;96568.06;;;16.20
64175;BMP280;50469;50.438;-119.202;2022-09-23T02:04:56;96569.13;;;15.68
64175;BMP280;50469;50.438;-119.202;2022-09-23T02:07:26;96573.72;;;15.31
64175;BMP280;50469;50.438;-119.202;2022-09-23T02:12:57;96590.53;;;15.35
64175;BMP280;50469;50.438;-119.202;2022-09-23T02:15:32;96589.72;;;15.16
64175;BMP280;50469;50.438;-119.202;2022-09-23T02:18:08;96589.56;;;15.19
64175;BMP280;50469;50.438;-119.202;2022-09-23T02:20:39;96598.81;;;15.00
64175;BMP280;50469;50.438;-119.202;2022-09-23T02:23:16;96603.56;;;14.65
64175;BMP280;50469;50.438;-119.202;2022-09-23T02:28:28;96611.28;;;14.31
64175;BMP280;50469;50.438;-119.202;2022-09-23T02:31:09;96613.34;;;14.27
64175;BMP280;50469;50.438;-119.202;2022-09-23T02:33:45;96616.25;;;14.33
64175;BMP280;50469;50.438;-119.202;2022-09-23T02:36:23;96620.31;;;14.15
64175;BMP280;50469;50.438;-119.202;2022-09-23T02:39:02;96630.91;;;13.97
64175;BMP280;50469;50.438;-119.202;2022-09-23T02:44:15;96635.63;;;13.45
64175;BMP280;50469;50.438;-119.202;2022-09-23T02:46:48;96640.34;;;13.41
64175;BMP280;50469;50.438;-119.202;2022-09-23T02:49:32;96644.88;;;13.44
64175;BMP280;50469;50.438;-119.202;2022-09-23T02:52:03;96643.78;;;13.55
64175;BMP280;50469;50.438;-119.202;2022-09-23T02:54:33;96637.25;;;13.43
64175;BMP280;50469;50.438;-119.202;2022-09-23T02:57:04;96644.34;;;13.11
64175;BMP280;50469;50.438;-119.202;2022-09-23T02:59:37;96653.59;;;12.68
64175;BMP280;50469;50.438;-119.202;2022-09-23T03:02:13;96657.53;;;12.64
64175;BMP280;50469;50.438;-119.202;2022-09-23T03:05:00;96664.69;;;12.83
64175;BMP280;50469;50.438;-119.202;2022-09-23T03:15:34;96674.69;;;14.45
64175;BMP280;50469;50.438;-119.202;2022-09-23T03:18:16;96687.47;;;13.59
64175;BMP280;50469;50.438;-119.202;2022-09-23T03:21:00;96692.75;;;12.95
64175;BMP280;50469;50.438;-119.202;2022-09-23T03:23:35;96690.72;;;12.57
64175;BMP280;50469;50.438;-119.202;2022-09-23T03:26:12;96700.34;;;12.54
64175;BMP280;50469;50.438;-119.202;2022-09-23T03:28:46;96697.66;;;12.54
64175;BMP280;50469;50.438;-119.202;2022-09-23T03:31:18;96691.84;;;12.43
64175;BMP280;50469;50.438;-119.202;2022-09-23T03:33:50;96699.16;;;12.26
64175;BMP280;50469;50.438;-119.202;2022-09-23T03:36:28;96704.19;;;11.91
64175;BMP280;50469;50.438;-119.202;2022-09-23T03:39:09;96707.44;;;12.32
64175;BMP280;50469;50.438;-119.202;2022-09-23T03:41:44;96708.06;;;12.23
64175;BMP280;50469;50.438;-119.202;2022-09-23T03:44:17;96714.69;;;11.86
64175;BMP280;50469;50.438;-119.202;2022-09-23T03:46:48;96724.16;;;11.90
64175;BMP280;50469;50.438;-119.202;2022-09-23T03:49:22;96720.69;;;14.38
64175;BMP280;50469;50.438;-119.202;2022-09-23T03:51:51;96727.00;;;14.79
64175;BMP280;50469;50.438;-119.202;2022-09-23T03:54:19;96721.69;;;15.19
64175;BMP280;50469;50.438;-119.202;2022-09-23T03:56:47;96718.03;;;15.35
64175;BMP280;50469;50.438;-119.202;2022-09-23T03:59:15;96721.91;;;15.65
64175;BMP280;50469;50.438;-119.202;2022-09-23T04:01:43;96720.78;;;15.44
64175;BMP280;50469;50.438;-119.202;2022-09-23T04:04:12;96718.41;;;15.65
64175;BMP280;50469;50.438;-119.202;2022-09-23T04:06:40;96710.28;;;16.05
64175;BMP280;50469;50.438;-119.202;2022-09-23T04:09:10;96724.84;;;16.17
64175;BMP280;50469;50.438;-119.202;2022-09-23T04:11:41;96721.69;;;16.09
64175;BMP280;50469;50.438;-119.202;2022-09-23T04:14:09;96729.00;;;15.90
64175;BMP280;50469;50.438;-119.202;2022-09-23T04:16:37;96739.88;;;16.18
64175;BMP280;50469;50.438;-119.202;2022-09-23T04:19:05;96737.47;;;16.29
64175;BMP280;50469;50.438;-119.202;2022-09-23T04:21:41;96752.66;;;16.73
64175;BMP280;50469;50.438;-119.202;2022-09-23T04:24:10;96747.22;;;16.45
64175;BMP280;50469;50.438;-119.202;2022-09-23T04:26:39;96761.13;;;16.16
64175;BMP280;50469;50.438;-119.202;2022-09-23T04:29:09;96767.00;;;16.14
64175;BMP280;50469;50.438;-119.202;2022-09-23T04:31:40;96757.84;;;16.03
64175;BMP280;50469;50.438;-119.202;2022-09-23T04:34:08;96769.09;;;16.10
64175;BMP280;50469;50.438;-119.202;2022-09-23T04:36:36;96779.13;;;16.10
64175;BMP280;50469;50.438;-119.202;2022-09-23T04:39:05;96778.56;;;15.65
64175;BMP280;50469;50.438;-119.202;2022-09-23T04:41:33;96777.22;;;15.70
64175;BMP280;50469;50.438;-119.202;2022-09-23T04:44:02;96786.88;;;15.80
64175;BMP280;50469;50.438;-119.202;2022-09-23T04:46:30;96781.50;;;15.89
64175;BMP280;50469;50.438;-119.202;2022-09-23T04:49:01;96783.50;;;15.67
64175;BMP280;50469;50.438;-119.202;2022-09-23T04:51:29;96783.00;;;15.90
64175;BMP280;50469;50.438;-119.202;2022-09-23T04:53:57;96789.78;;;16.04
64175;BMP280;50469;50.438;-119.202;2022-09-23T04:56:27;96792.06;;;16.15
64175;BMP280;50469;50.438;-119.202;2022-09-23T04:58:55;96785.22;;;16.41
64175;BMP280;50469;50.438;-119.202;2022-09-23T05:01:26;96805.59;;;16.33
64175;BMP280;50469;50.438;-119.202;2022-09-23T05:03:58;96802.44;;;16.16
64175;BMP280;50469;50.438;-119.202;2022-09-23T05:06:26;96810.03;;;16.00
64175;BMP280;50469;50.438;-119.202;2022-09-23T05:08:56;96813.31;;;16.04
64175;BMP280;50469;50.438;-119.202;2022-09-23T05:11:25;96815.63;;;16.14
64175;BMP280;50469;50.438;-119.202;2022-09-23T05:13:53;96831.13;;;16.41
64175;BMP280;50469;50.438;-119.202;2022-09-23T05:16:25;96831.28;;;16.29
64175;BMP280;50469;50.438;-119.202;2022-09-23T05:18:53;96835.59;;;16.26
64175;BMP280;50469;50.438;-119.202;2022-09-23T05:21:23;96841.41;;;16.15
64175;BMP280;50469;50.438;-119.202;2022-09-23T05:23:53;96841.56;;;16.03
64175;BMP280;50469;50.438;-119.202;2022-09-23T05:26:25;96837.25;;;16.24
64175;BMP280;50469;50.438;-119.202;2022-09-23T05:28:57;96834.94;;;16.72
64175;BMP280;50469;50.438;-119.202;2022-09-23T05:31:27;96844.25;;;16.61
64175;BMP280;50469;50.438;-119.202;2022-09-23T05:33:57;96845.56;;;16.48
64175;BMP280;50469;50.438;-119.202;2022-09-23T05:36:27;96854.13;;;16.46
64175;BMP280;50469;50.438;-119.202;2022-09-23T05:39:02;96860.09;;;16.41
64175;BMP280;50469;50.438;-119.202;2022-09-23T05:41:31;96861.22;;;16.62
64175;BMP280;50469;50.438;-119.202;2022-09-23T05:43:59;96865.53;;;16.50
64175;BMP280;50469;50.438;-119.202;2022-09-23T05:46:31;96850.06;;;16.41
64175;BMP280;50469;50.438;-119.202;2022-09-23T05:49:00;96863.91;;;16.80
64175;BMP280;50469;50.438;-119.202;2022-09-23T05:51:33;96859.84;;;16.76
64175;BMP280;50469;50.438;-119.202;2022-09-23T05:54:01;96865.41;;;17.00
64175;BMP280;50469;50.438;-119.202;2022-09-23T05:56:36;96876.09;;;17.22
64175;BMP280;50469;50.438;-119.202;2022-09-23T05:59:05;96871.88;;;17.02
64175;BMP280;50469;50.438;-119.202;2022-09-23T06:01:36;96886.88;;;16.76
64175;BMP280;50469;50.438;-119.202;2022-09-23T06:04:11;96882.00;;;16.43
64175;BMP280;50469;50.438;-119.202;2022-09-23T06:06:43;96892.88;;;16.71
64175;BMP280;50469;50.438;-119.202;2022-09-23T06:09:13;96901.88;;;16.67
64175;BMP280;50469;50.438;-119.202;2022-09-23T06:11:43;96910.25;;;16.42
64175;BMP280;50469;50.438;-119.202;2022-09-23T06:14:12;96909.03;;;16.43
64175;BMP280;50469;50.438;-119.202;2022-09-23T06:16:41;96919.91;;;16.21
64175;BMP280;50469;50.438;-119.202;2022-09-23T06:19:09;96909.72;;;15.85
64175;BMP280;50469;50.438;-119.202;2022-09-23T06:21:38;96911.16;;;15.77
64175;BMP280;50469;50.438;-119.202;2022-09-23T06:24:07;96917.47;;;15.83
64175;BMP280;50469;50.438;-119.202;2022-09-23T06:26:39;96918.81;;;15.78
64175;BMP280;50469;50.438;-119.202;2022-09-23T06:29:10;96918.94;;;15.96
64175;BMP280;50469;50.438;-119.202;2022-09-23T06:31:41;96927.56;;;15.60
64175;BMP280;50469;50.438;-119.202;2022-09-23T06:34:12;96931.00;;;15.39
64175;BMP280;50469;50.438;-119.202;2022-09-23T06:36:41;96929.81;;;15.40
64175;BMP280;50469;50.438;-119.202;2022-09-23T06:39:15;96935.78;;;15.35
64175;BMP280;50469;50.438;-119.202;2022-09-23T06:41:43;96947.94;;;15.39
64175;BMP280;50469;50.438;-119.202;2022-09-23T06:44:14;96954.28;;;15.45
64175;BMP280;50469;50.438;-119.202;2022-09-23T06:46:42;96964.69;;;15.34
64175;BMP280;50469;50.438;-119.202;2022-09-23T06:49:13;96966.28;;;15.44
64175;BMP280;50469;50.438;-119.202;2022-09-23T06:51:41;96975.50;;;15.21
64175;BMP280;50469;50.438;-119.202;2022-09-23T06:54:09;96989.81;;;15.44
64175;BMP280;50469;50.438;-119.202;2022-09-23T06:56:38;96991.41;;;15.41
64175;BMP280;50469;50.438;-119.202;2022-09-23T06:59:09;96999.00;;;15.34
64175;BMP280;50469;50.438;-119.202;2022-09-23T07:01:37;97004.97;;;15.28
64175;BMP280;50469;50.438;-119.202;2022-09-23T07:04:06;97007.00;;;15.24
64175;BMP280;50469;50.438;-119.202;2022-09-23T07:06:36;97002.09;;;14.97
64175;BMP280;50469;50.438;-119.202;2022-09-23T07:09:06;97000.69;;;14.93
64175;BMP280;50469;50.438;-119.202;2022-09-23T07:11:34;97002.84;;;14.85
64175;BMP280;50469;50.438;-119.202;2022-09-23T07:14:02;96998.00;;;14.54
64175;BMP280;50469;50.438;-119.202;2022-09-23T07:16:30;97006.44;;;14.02
64175;BMP280;50469;50.438;-119.202;2022-09-23T07:18:58;97002.75;;;13.96
64175;BMP280;50469;50.438;-119.202;2022-09-23T07:21:27;97001.34;;;14.33
64175;BMP280;50469;50.438;-119.202;2022-09-23T07:23:55;97006.16;;;14.25
64175;BMP280;50469;50.438;-119.202;2022-09-23T07:26:23;97003.47;;;14.38
64175;BMP280;50469;50.438;-119.202;2022-09-23T07:28:53;97000.22;;;14.18
64175;BMP280;50469;50.438;-119.202;2022-09-23T07:31:24;97005.06;;;14.10
64175;BMP280;50469;50.438;-119.202;2022-09-23T07:34:06;97008.63;;;13.78
64175;BMP280;50469;50.438;-119.202;2022-09-23T07:36:34;97008.50;;;13.81
64175;BMP280;50469;50.438;-119.202;2022-09-23T07:39:03;97002.53;;;13.44
64175;BMP280;50469;50.438;-119.202;2022-09-23T07:41:32;97007.38;;;13.66
64175;BMP280;50469;50.438;-119.202;2022-09-23T07:44:06;97003.91;;;13.65
64175;BMP280;50469;50.438;-119.202;2022-09-23T07:46:34;97014.50;;;13.27
64175;BMP280;50469;50.438;-119.202;2022-09-23T07:49:03;97027.31;;;12.87
64175;BMP280;50469;50.438;-119.202;2022-09-23T07:51:35;97028.56;;;12.98
64175;BMP280;50469;50.438;-119.202;2022-09-23T07:54:05;97026.81;;;13.08
64175;BMP280;50469;50.438;-119.202;2022-09-23T07:56:34;97031.41;;;12.91
64175;BMP280;50469;50.438;-119.202;2022-09-23T07:59:06;97027.81;;;13.14
64175;BMP280;50469;50.438;-119.202;2022-09-23T08:01:40;97027.25;;;13.07
64175;BMP280;50469;50.438;-119.202;2022-09-23T08:06:56;97019.34;;;13.16
64175;BMP280;50469;50.438;-119.202;2022-09-23T08:09:32;97028.94;;;13.33
64175;BMP280;50469;50.438;-119.202;2022-09-23T08:12:01;97035.88;;;13.14
64175;BMP280;50469;50.438;-119.202;2022-09-23T08:14:29;97033.13;;;13.18
64175;BMP280;50469;50.438;-119.202;2022-09-23T08:16:57;97042.78;;;13.15
64175;BMP280;50469;50.438;-119.202;2022-09-23T08:19:25;97038.84;;;13.20
64175;BMP280;50469;50.438;-119.202;2022-09-23T08:21:53;97034.91;;;12.72
64175;BMP280;50469;50.438;-119.202;2022-09-23T08:24:22;97040.81;;;12.03
64175;BMP280;50469;50.438;-119.202;2022-09-23T08:26:53;97040.88;;;11.80
64175;BMP280;50469;50.438;-119.202;2022-09-23T08:29:23;97044.50;;;11.69
64175;BMP280;50469;50.438;-119.202;2022-09-23T08:31:52;97052.38;;;11.57
64175;BMP280;50469;50.438;-119.202;2022-09-23T08:34:21;97055.75;;;11.37
64175;BMP280;50469;50.438;-119.202;2022-09-23T08:36:49;97055.53;;;11.24
64175;BMP280;50469;50.438;-119.202;2022-09-23T08:39:18;97061.44;;;11.12
64175;BMP280;50469;50.438;-119.202;2022-09-23T08:47:27;97068.09;;;12.62
64175;BMP280;50469;50.438;-119.202;2022-09-23T08:50:15;97059.47;;;12.90
64175;BMP280;50469;50.438;-119.202;2022-09-23T08:55:18;97054.13;;;13.07
64175;BMP280;50469;50.438;-119.202;2022-09-23T09:03:50;97083.22;;;13.44
64175;BMP280;50469;50.438;-119.202;2022-09-23T09:06:40;97079.75;;;13.44
64175;BMP280;50469;50.438;-119.202;2022-09-23T09:09:42;97097.63;;;13.34
64175;BMP280;50469;50.438;-119.202;2022-09-23T09:12:16;97092.69;;;13.33
64175;BMP280;50469;50.438;-119.202;2022-09-23T09:15:00;97104.47;;;12.03
64175;BMP280;50469;50.438;-119.202;2022-09-23T09:17:44;97108.81;;;10.88
64175;BMP280;50469;50.438;-119.202;2022-09-23T09:25:51;97125.69;;;10.09
64175;BMP280;50469;50.438;-119.202;2022-09-23T09:39:13;97122.84;;;9.82
64175;BMP280;50469;50.438;-119.202;2022-09-23T09:41:49;97129.72;;;9.83
64175;BMP280;50469;50.438;-119.202;2022-09-23T09:44:35;97120.41;;;9.46
64175;BMP280;50469;50.438;-119.202;2022-09-23T09:50:13;97123.09;;;9.43
64175;BMP280;50469;50.438;-119.202;2022-09-23T09:52:41;97135.97;;;9.62
64175;BMP280;50469;50.438;-119.202;2022-09-23T10:00:33;97125.06;;;9.35
64175;BMP280;50469;50.438;-119.202;2022-09-23T10:13:26;97140.59;;;8.45
64175;BMP280;50469;50.438;-119.202;2022-09-23T10:15:56;97137.91;;;8.52
64175;BMP280;50469;50.438;-119.202;2022-09-23T10:18:31;97147.81;;;8.59
64175;BMP280;50469;50.438;-119.202;2022-09-23T10:23:44;97131.44;;;8.57
64175;BMP280;50469;50.438;-119.202;2022-09-23T10:26:14;97129.53;;;8.43
64175;BMP280;50469;50.438;-119.202;2022-09-23T10:33:52;97128.78;;;8.21
64175;BMP280;50469;50.438;-119.202;2022-09-23T10:36:21;97129.56;;;8.21
64175;BMP280;50469;50.438;-119.202;2022-09-23T10:38:53;97135.63;;;8.29
64175;BMP280;50469;50.438;-119.202;2022-09-23T10:44:45;97139.81;;;8.41
64175;BMP280;50469;50.438;-119.202;2022-09-23T10:47:38;97127.66;;;8.33
64175;BMP280;50469;50.438;-119.202;2022-09-23T10:50:54;97146.72;;;8.17
64175;BMP280;50469;50.438;-119.202;2022-09-23T10:53:38;97160.41;;;8.12
64175;BMP280;50469;50.438;-119.202;2022-09-23T10:56:35;97166.13;;;8.14
64175;BMP280;50469;50.438;-119.202;2022-09-23T10:59:08;97166.13;;;8.14
64175;BMP280;50469;50.438;-119.202;2022-09-23T11:10:33;97174.13;;;8.07
64175;BMP280;50469;50.438;-119.202;2022-09-23T11:21:35;97166.88;;;7.96
64175;BMP280;50469;50.438;-119.202;2022-09-23T11:29:43;97187.06;;;7.94
64175;BMP280;50469;50.438;-119.202;2022-09-23T11:35:25;97182.88;;;7.86
64175;BMP280;50469;50.438;-119.202;2022-09-23T11:38:10;97197.25;;;7.67
64175;BMP280;50469;50.438;-119.202;2022-09-23T11:40:40;97205.25;;;7.59
64175;BMP280;50469;50.438;-119.202;2022-09-23T11:43:19;97209.75;;;7.52
64175;BMP280;50469;50.438;-119.202;2022-09-23T11:46:25;97210.13;;;7.43
64175;BMP280;50469;50.438;-119.202;2022-09-23T11:51:29;97208.28;;;7.58
64175;BMP280;50469;50.438;-119.202;2022-09-23T11:54:10;97207.88;;;7.52
64175;BMP280;50469;50.438;-119.202;2022-09-23T11:56:50;97201.41;;;7.57
64175;BMP280;50469;50.438;-119.202;2022-09-23T11:59:41;97199.91;;;7.59
64175;BMP280;50469;50.438;-119.202;2022-09-23T12:05:02;97209.91;;;7.84
64175;BMP280;50469;50.438;-119.202;2022-09-23T12:10:16;97215.63;;;7.93
64175;BMP280;50469;50.438;-119.202;2022-09-23T12:12:55;97213.72;;;7.94
64175;BMP280;50469;50.438;-119.202;2022-09-23T12:15:51;97219.81;;;8.01
64175;BMP280;50469;50.438;-119.202;2022-09-23T12:27:14;97228.59;;;8.06
64175;BMP280;50469;50.438;-119.202;2022-09-23T12:29:49;97228.97;;;8.04
64175;BMP280;50469;50.438;-119.202;2022-09-23T12:32:19;97227.84;;;8.19
64175;BMP280;50469;50.438;-119.202;2022-09-23T12:34:50;97231.69;;;8.40
64175;BMP280;50469;50.438;-119.202;2022-09-23T12:37:26;97240.06;;;8.46
64175;BMP280;50469;50.438;-119.202;2022-09-23T12:40:00;97243.88;;;8.41
64175;BMP280;50469;50.438;-119.202;2022-09-23T12:42:30;97248.41;;;8.30
64175;BMP280;50469;50.438;-119.202;2022-09-23T12:47:44;97252.97;;;8.11
64175;BMP280;50469;50.438;-119.202;2022-09-23T12:56:14;97257.13;;;7.98
64175;BMP280;50469;50.438;-119.202;2022-09-23T13:03:49;97265.09;;;7.80
64175;BMP280;50469;50.438;-119.202;2022-09-23T13:06:20;97260.13;;;7.78
64175;BMP280;50469;50.438;-119.202;2022-09-23T13:08:51;97247.56;;;7.86
64175;BMP280;50469;50.438;-119.202;2022-09-23T13:11:28;97246.06;;;7.92
64175;BMP280;50469;50.438;-119.202;2022-09-23T13:14:02;97248.38;;;7.97
64175;BMP280;50469;50.438;-119.202;2022-09-23T13:16:44;97252.22;;;8.07
64175;BMP280;50469;50.438;-119.202;2022-09-23T13:22:07;97244.22;;;8.04
64175;BMP280;50469;50.438;-119.202;2022-09-23T13:24:52;97239.66;;;8.08
64175;BMP280;50469;50.438;-119.202;2022-09-23T13:27:29;97252.16;;;7.93
64175;BMP280;50469;50.438;-119.202;2022-09-23T13:30:17;97248.34;;;7.90
64175;BMP280;50469;50.438;-119.202;2022-09-23T13:33:15;97249.91;;;8.02
64175;BMP280;50469;50.438;-119.202;2022-09-23T13:35:48;97267.44;;;8.07
64175;BMP280;50469;50.438;-119.202;2022-09-23T13:38:22;97267.44;;;8.07
64175;BMP280;50469;50.438;-119.202;2022-09-23T13:41:01;97271.28;;;8.13
64175;BMP280;50469;50.438;-119.202;2022-09-23T13:43:38;97283.84;;;8.16
64175;BMP280;50469;50.438;-119.202;2022-09-23T13:46:27;97289.56;;;8.11
64175;BMP280;50469;50.438;-119.202;2022-09-23T13:48:57;97294.50;;;8.16
64175;BMP280;50469;50.438;-119.202;2022-09-23T13:51:32;97290.72;;;8.17
64175;BMP280;50469;50.438;-119.202;2022-09-23T13:54:02;97298.72;;;8.13
64175;BMP280;50469;50.438;-119.202;2022-09-23T13:56:32;97299.81;;;8.12
64175;BMP280;50469;50.438;-119.202;2022-09-23T13:59:30;97291.84;;;8.05
64175;BMP280;50469;50.438;-119.202;2022-09-23T14:04:39;97294.16;;;8.32
64175;BMP280;50469;50.438;-119.202;2022-09-23T14:07:12;97298.00;;;8.45
64175;BMP280;50469;50.438;-119.202;2022-09-23T14:09:47;97302.22;;;8.46
64175;BMP280;50469;50.438;-119.202;2022-09-23T14:12:16;97302.97;;;8.54
64175;BMP280;50469;50.438;-119.202;2022-09-23T14:14:44;97308.66;;;8.45
64175;BMP280;50469;50.438;-119.202;2022-09-23T14:17:17;97310.22;;;8.46
64175;BMP280;50469;50.438;-119.202;2022-09-23T14:19:45;97306.78;;;8.53
64175;BMP280;50469;50.438;-119.202;2022-09-23T14:22:25;97311.34;;;8.63
64175;BMP280;50469;50.438;-119.202;2022-09-23T14:24:55;97308.34;;;8.75
64175;BMP280;50469;50.438;-119.202;2022-09-23T14:27:31;97322.03;;;9.02
64175;BMP280;50469;50.438;-119.202;2022-09-23T14:30:01;97317.84;;;8.98
64175;BMP280;50469;50.438;-119.202;2022-09-23T14:32:33;97328.16;;;8.96
64175;BMP280;50469;50.438;-119.202;2022-09-23T14:40:04;97336.16;;;9.06
64175;BMP280;50469;50.438;-119.202;2022-09-23T14:42:38;97337.31;;;8.98
64175;BMP280;50469;50.438;-119.202;2022-09-23T14:45:07;97343.41;;;9.06
64175;BMP280;50469;50.438;-119.202;2022-09-23T14:47:40;97337.69;;;9.04
64175;BMP280;50469;50.438;-119.202;2022-09-23T14:50:19;97349.13;;;9.15
64175;BMP280;50469;50.438;-119.202;2022-09-23T14:52:50;97353.69;;;9.11
64175;BMP280;50469;50.438;-119.202;2022-09-23T14:55:21;97355.25;;;9.05
64175;BMP280;50469;50.438;-119.202;2022-09-23T14:58:02;97369.00;;;9.11
64175;BMP280;50469;50.438;-119.202;2022-09-23T15:00:33;97365.53;;;9.17
64175;BMP280;50469;50.438;-119.202;2022-09-23T15:03:04;97373.53;;;9.14
64175;BMP280;50469;50.438;-119.202;2022-09-23T15:05:41;97372.78;;;9.24
64175;BMP280;50469;50.438;-119.202;2022-09-23T15:08:16;97372.75;;;9.31
64175;BMP280;50469;50.438;-119.202;2022-09-23T15:10:46;97385.75;;;9.36
64175;BMP280;50469;50.438;-119.202;2022-09-23T15:13:19;97388.00;;;9.41
64175;BMP280;50469;50.438;-119.202;2022-09-23T15:15:51;97388.03;;;9.45
64175;BMP280;50469;50.438;-119.202;2022-09-23T15:18:31;97393.78;;;9.36
64175;BMP280;50469;50.438;-119.202;2022-09-23T15:21:11;97383.81;;;9.29
64175;BMP280;50469;50.438;-119.202;2022-09-23T15:23:44;97388.03;;;9.23
64175;BMP280;50469;50.438;-119.202;2022-09-23T15:28:50;97398.34;;;9.36
64175;BMP280;50469;50.438;-119.202;2022-09-23T15:31:21;97404.41;;;9.40
64175;BMP280;50469;50.438;-119.202;2022-09-23T15:33:50;97406.38;;;9.46
64175;BMP280;50469;50.438;-119.202;2022-09-23T15:36:26;97407.13;;;9.54
64175;BMP280;50469;50.438;-119.202;2022-09-23T15:39:00;97409.38;;;9.66
64175;BMP280;50469;50.438;-119.202;2022-09-23T15:41:29;97412.78;;;9.78
64175;BMP280;50469;50.438;-119.202;2022-09-23T15:43:59;97419.28;;;9.80
64175;BMP280;50469;50.438;-119.202;2022-09-23T15:46:29;97418.50;;;9.80
64175;BMP280;50469;50.438;-119.202;2022-09-23T15:49:00;97411.25;;;9.84
64175;BMP280;50469;50.438;-119.202;2022-09-23T15:51:30;97415.38;;;10.03
64175;BMP280;50469;50.438;-119.202;2022-09-23T15:54:01;97411.19;;;10.02
64175;BMP280;50469;50.438;-119.202;2022-09-23T15:56:29;97408.44;;;10.16
64175;BMP280;50469;50.438;-119.202;2022-09-23T15:58:57;97408.78;;;10.29
64175;BMP280;50469;50.438;-119.202;2022-09-23T16:01:29;97408.91;;;10.70
64175;BMP280;50469;50.438;-119.202;2022-09-23T16:03:58;97406.44;;;10.97
64175;BMP280;50469;50.438;-119.202;2022-09-23T16:06:26;97401.47;;;10.99
64175;BMP280;50469;50.438;-119.202;2022-09-23T16:08:54;97405.72;;;10.93
64175;BMP280;50469;50.438;-119.202;2022-09-23T16:11:24;97408.34;;;11.00
64175;BMP280;50469;50.438;-119.202;2022-09-23T16:13:53;97409.94;;;10.91
64175;BMP280;50469;50.438;-119.202;2022-09-23T16:16:23;97419.84;;;11.01
64175;BMP280;50469;50.438;-119.202;2022-09-23T16:18:54;97413.22;;;11.13
64175;BMP280;50469;50.438;-119.202;2022-09-23T16:21:24;97418.41;;;11.34
64175;BMP280;50469;50.438;-119.202;2022-09-23T16:23:53;97418.53;;;11.58
64175;BMP280;50469;50.438;-119.202;2022-09-23T16:26:34;97403.88;;;11.69
64175;BMP280;50469;50.438;-119.202;2022-09-23T16:29:03;97414.34;;;11.95
64175;BMP280;50469;50.438;-119.202;2022-09-23T16:31:31;97407.88;;;12.50
64175;BMP280;50469;50.438;-119.202;2022-09-23T16:33:59;97407.78;;;12.80
64175;BMP280;50469;50.438;-119.202;2022-09-23T16:36:30;97410.31;;;12.91
64175;BMP280;50469;50.438;-119.202;2022-09-23T16:39:05;97410.25;;;13.18
64175;BMP280;50469;50.438;-119.202;2022-09-23T16:41:34;97409.06;;;13.43
64175;BMP280;50469;50.438;-119.202;2022-09-23T16:44:04;97413.94;;;13.48
64175;BMP280;50469;50.438;-119.202;2022-09-23T16:46:33;97422.22;;;13.37
64175;BMP280;50469;50.438;-119.202;2022-09-23T16:49:01;97415.34;;;13.13
64175;BMP280;50469;50.438;-119.202;2022-09-23T16:51:31;97419.63;;;13.30